createdAt,value
2023-02-22T00:03:57.977Z,99464.02
2023-02-22T00:06:32.715Z,99464.13
2023-02-22T00:09:11.675Z,99473.20
2023-02-22T00:12:05.259Z,99471.57
2023-02-22T00:14:35.920Z,99478.27
2023-02-22T00:17:23.493Z,99473.53
2023-02-22T00:20:18.832Z,99488.27
2023-02-22T00:37:44.309Z,99531.10
2023-02-22T00:43:44.058Z,99534.08
2023-02-22T00:49:45.419Z,99546.36
2023-02-22T01:03:35.339Z,99579.78
2023-02-22T01:06:19.756Z,99583.83
2023-02-22T01:20:21.403Z,99613.89
2023-02-22T01:23:34.332Z,99624.89
2023-02-22T01:39:46.007Z,99672.23
2023-02-22T01:42:53.605Z,99675.02
2023-02-22T01:45:42.437Z,99678.37
2023-02-22T01:48:29.389Z,99681.27
2023-02-22T01:51:23.891Z,99687.23
2023-02-22T01:54:17.212Z,99692.02
2023-02-22T02:00:18.729Z,99704.96
2023-02-22T02:03:10.926Z,99710.30
2023-02-22T02:05:44.956Z,99715.80
2023-02-22T02:09:01.474Z,99722.30
2023-02-22T02:11:52.588Z,99728.88
2023-02-22T02:14:25.188Z,99736.84
2023-02-22T02:18:50.631Z,99743.52
2023-02-22T02:29:04.366Z,99767.84
2023-02-22T02:32:16.246Z,99778.48
2023-02-22T02:35:00.220Z,99782.82
2023-02-22T02:37:42.619Z,99794.36
2023-02-22T02:40:20.957Z,99805.38
2023-02-22T02:43:27.899Z,99814.58
2023-02-22T02:46:32.644Z,99819.04
2023-02-22T02:49:41.497Z,99831.55
2023-02-22T02:55:24.394Z,99840.19
2023-02-22T02:57:54.117Z,99842.28
2023-02-22T03:00:28.743Z,99847.30
2023-02-22T03:03:21.858Z,99853.23
2023-02-22T03:09:48.305Z,99874.85
2023-02-22T03:12:33.339Z,99881.04
2023-02-22T03:22:14.864Z,99897.94
2023-02-22T03:25:00.887Z,99907.52
2023-02-22T03:31:39.890Z,99922.48
2023-02-22T03:34:42.334Z,99915.46
2023-02-22T03:41:05.932Z,99930.34
2023-02-22T03:44:10.798Z,99932.56
2023-02-22T03:46:55.569Z,99931.72
2023-02-22T03:50:12.282Z,99933.16
2023-02-22T04:01:17.910Z,99970.75
2023-02-22T04:03:55.665Z,99975.84
2023-02-22T04:06:26.595Z,99978.75
2023-02-22T04:08:56.632Z,99987.45
2023-02-22T04:11:33.967Z,99993.70
2023-02-22T04:14:35.466Z,99994.73
2023-02-22T04:17:24.802Z,100000.23
2023-02-22T04:20:27.373Z,100011.79
2023-02-22T04:23:08.804Z,100026.33
2023-02-22T04:25:43.311Z,100032.61
2023-02-22T04:28:29.675Z,100041.11
2023-02-22T04:31:19.844Z,100045.30
2023-02-22T04:33:53.919Z,100047.11
2023-02-22T04:39:51.811Z,100062.54
2023-02-22T04:42:33.369Z,100066.54
2023-02-22T04:45:26.762Z,100072.48
2023-02-22T04:48:40.757Z,100080.69
2023-02-22T04:54:26.759Z,100095.60
2023-02-22T04:57:01.080Z,100101.61
2023-02-22T04:59:54.829Z,100107.86
2023-02-22T05:02:43.661Z,100105.91
2023-02-22T05:25:14.964Z,100161.05
2023-02-22T05:28:25.848Z,100164.05
2023-02-22T05:31:02.539Z,100164.77
2023-02-22T05:33:36.111Z,100174.26
2023-02-22T05:36:05.312Z,100187.48
2023-02-22T05:38:38.066Z,100198.34
2023-02-22T05:41:17.112Z,100205.73
2023-02-22T05:46:40.638Z,100213.79
2023-02-22T14:35:50.356Z,100748.80
2023-02-22T14:39:02.416Z,100750.27
2023-02-22T14:42:46.709Z,100759.97
2023-02-22T23:08:00.245Z,101213.23
2023-02-22T23:19:26.715Z,101211.38
2023-02-22T23:22:00.282Z,101216.17
2023-02-22T23:24:49.871Z,101219.92
2023-02-22T23:27:25.145Z,101226.39
2023-02-22T23:30:29.147Z,101238.67
2023-02-22T23:33:05.116Z,101238.66
2023-02-22T23:35:38.171Z,101236.44
2023-02-22T23:38:11.311Z,101239.52
2023-02-22T23:43:54.265Z,101249.13
2023-02-22T23:46:23.286Z,101251.05
2023-02-22T23:49:02.573Z,101255.36
2023-02-22T23:51:40.074Z,101263.48
2023-02-22T23:54:36.758Z,101261.68
2023-02-22T23:57:24.920Z,101267.20
